createdAt,value
2023-03-18T00:01:03.897Z,5.11
2023-03-18T00:03:32.592Z,4.90
2023-03-18T00:06:05.191Z,4.92
2023-03-18T00:08:33.912Z,4.88
2023-03-18T00:11:05.476Z,4.95
2023-03-18T00:13:33.743Z,4.98
2023-03-18T00:16:02.527Z,5.00
2023-03-18T00:18:31.660Z,5.16
2023-03-18T00:21:00.951Z,5.28
2023-03-18T00:23:29.383Z,5.32
2023-03-18T00:25:59.900Z,5.37
2023-03-18T00:28:30.138Z,5.46
2023-03-18T00:31:03.905Z,5.54
2023-03-18T00:33:31.869Z,5.65
2023-03-18T00:35:59.658Z,5.79
2023-03-18T00:38:27.583Z,5.81
2023-03-18T00:41:01.477Z,5.79
2023-03-18T00:43:35.913Z,5.73
2023-03-18T00:46:05.449Z,5.60
2023-03-18T00:48:33.195Z,5.56
2023-03-18T00:51:00.783Z,5.38
2023-03-18T00:53:28.625Z,5.28
2023-03-18T00:55:56.322Z,5.10
2023-03-18T00:58:24.608Z,5.08
2023-03-18T01:00:53.634Z,5.01
2023-03-18T01:03:25.719Z,4.94
2023-03-18T01:05:54.115Z,4.94
2023-03-18T01:08:22.982Z,4.92
2023-03-18T01:10:53.035Z,4.74
2023-03-18T01:13:21.431Z,4.75
2023-03-18T01:15:49.038Z,4.75
2023-03-18T01:18:19.010Z,4.74
2023-03-18T01:20:47.120Z,4.71
2023-03-18T01:23:16.652Z,4.74
2023-03-18T01:25:45.600Z,4.82
2023-03-18T01:28:19.181Z,4.81
2023-03-18T01:30:46.782Z,4.87
2023-03-18T01:33:19.905Z,4.92
2023-03-18T01:35:47.892Z,4.99
2023-03-18T01:38:17.333Z,5.05
2023-03-18T01:40:45.168Z,5.13
2023-03-18T01:43:17.962Z,5.22
2023-03-18T01:45:50.242Z,5.30
2023-03-18T01:48:21.826Z,5.34
2023-03-18T01:50:53.828Z,5.36
2023-03-18T01:53:23.971Z,5.38
2023-03-18T01:55:52.146Z,5.39
2023-03-18T01:58:22.752Z,5.42
2023-03-18T02:01:02.531Z,5.46
2023-03-18T02:03:32.285Z,5.52
2023-03-18T02:05:59.937Z,5.48
2023-03-18T02:08:29.100Z,5.43
2023-03-18T02:10:57.627Z,5.48
2023-03-18T02:13:27.384Z,5.48
2023-03-18T02:15:59.252Z,5.51
2023-03-18T02:18:35.211Z,5.53
2023-03-18T02:21:16.842Z,5.54
2023-03-18T02:23:56.779Z,5.55
2023-03-18T02:26:30.623Z,5.58
2023-03-18T02:29:04.826Z,5.62
2023-03-18T02:31:42.670Z,5.68
2023-03-18T02:34:12.640Z,5.69
2023-03-18T02:36:41.901Z,5.74
2023-03-18T02:39:14.557Z,5.77
2023-03-18T02:41:43.333Z,5.80
2023-03-18T02:44:13.113Z,5.85
2023-03-18T02:46:57.329Z,5.94
2023-03-18T02:49:27.718Z,5.97
2023-03-18T02:51:56.364Z,6.01
2023-03-18T02:54:27.648Z,6.04
2023-03-18T02:56:55.460Z,6.11
2023-03-18T02:59:25.645Z,6.11
2023-03-18T03:01:54.922Z,6.10
2023-03-18T03:04:25.703Z,6.06
2023-03-18T03:06:54.903Z,6.06
2023-03-18T03:09:35.388Z,6.03
2023-03-18T03:12:03.404Z,6.01
2023-03-18T03:14:33.205Z,5.98
2023-03-18T03:17:02.974Z,5.99
2023-03-18T03:19:31.239Z,5.93
2023-03-18T03:21:58.863Z,5.85
2023-03-18T03:24:27.310Z,5.76
2023-03-18T03:26:55.010Z,5.79
2023-03-18T03:29:22.781Z,5.77
2023-03-18T03:31:51.752Z,5.78
2023-03-18T03:34:19.705Z,5.81
2023-03-18T03:36:47.319Z,5.77
2023-03-18T03:39:15.207Z,5.73
2023-03-18T03:41:42.871Z,5.71
2023-03-18T03:44:11.366Z,5.71
2023-03-18T03:46:39.054Z,5.67
2023-03-18T03:49:08.217Z,5.51
2023-03-18T03:51:36.433Z,5.59
2023-03-18T03:54:04.294Z,5.58
2023-03-18T03:56:32.306Z,5.58
2023-03-18T03:59:00.640Z,5.62
2023-03-18T04:01:42.672Z,5.64
2023-03-18T04:04:12.158Z,5.77
2023-03-18T04:06:39.951Z,5.90
2023-03-18T04:09:07.902Z,6.07
2023-03-18T04:11:35.531Z,6.29
2023-03-18T04:14:03.443Z,6.55
2023-03-18T04:16:31.272Z,6.73
2023-03-18T04:18:59.204Z,6.79
2023-03-18T04:21:28.297Z,6.93
2023-03-18T04:23:57.257Z,7.03
2023-03-18T04:26:24.977Z,6.84
2023-03-18T04:28:54.396Z,6.73
2023-03-18T04:31:23.597Z,6.56
2023-03-18T04:33:51.359Z,6.43
2023-03-18T04:36:19.176Z,6.26
2023-03-18T04:38:48.171Z,6.24
2023-03-18T04:41:15.931Z,6.56
2023-03-18T04:43:44.816Z,6.51
2023-03-18T04:46:13.025Z,6.69
2023-03-18T04:48:42.241Z,6.62
2023-03-18T04:51:10.776Z,6.31
2023-03-18T04:53:39.778Z,6.30
2023-03-18T04:56:10.959Z,6.17
2023-03-18T04:58:45.685Z,6.17
2023-03-18T05:01:19.263Z,6.38
2023-03-18T05:03:47.446Z,6.72
2023-03-18T05:06:23.441Z,7.04
2023-03-18T05:08:59.120Z,7.39
2023-03-18T05:11:31.483Z,7.63
2023-03-18T05:14:03.593Z,7.76
2023-03-18T05:16:40.086Z,7.54
2023-03-18T05:19:08.521Z,7.34
2023-03-18T05:21:39.397Z,7.15
2023-03-18T05:24:07.985Z,6.99
2023-03-18T05:26:41.315Z,7.04
2023-03-18T05:29:10.565Z,7.14
2023-03-18T05:32:01.341Z,7.08
2023-03-18T05:34:31.377Z,7.01
2023-03-18T05:36:59.701Z,6.88
2023-03-18T05:39:29.030Z,6.78
2023-03-18T05:42:02.229Z,6.65
2023-03-18T05:44:30.726Z,6.41
2023-03-18T05:47:01.792Z,6.31
2023-03-18T05:49:59.233Z,6.05
2023-03-18T05:52:28.278Z,6.01
2023-03-18T05:55:01.203Z,5.85
2023-03-18T05:57:34.494Z,5.75
2023-03-18T06:00:06.240Z,5.78
2023-03-18T06:02:49.620Z,5.82
2023-03-18T06:05:18.562Z,5.91
2023-03-18T06:07:47.887Z,5.83
2023-03-18T06:10:16.237Z,5.87
2023-03-18T06:12:47.690Z,5.98
2023-03-18T06:15:17.584Z,6.04
2023-03-18T06:17:45.771Z,6.11
2023-03-18T06:20:14.695Z,6.22
2023-03-18T06:22:43.623Z,6.31
2023-03-18T06:25:11.744Z,6.43
2023-03-18T06:27:41.124Z,6.53
2023-03-18T06:30:11.684Z,6.63
2023-03-18T06:32:41.250Z,6.55
2023-03-18T06:35:10.944Z,6.57
2023-03-18T06:37:40.491Z,6.71
2023-03-18T06:40:12.188Z,6.76
2023-03-18T06:42:41.058Z,6.91
2023-03-18T06:45:17.159Z,7.06
2023-03-18T06:47:51.050Z,7.18
2023-03-18T06:50:20.589Z,7.32
2023-03-18T06:52:49.373Z,7.45
2023-03-18T06:55:19.818Z,7.59
2023-03-18T06:57:48.151Z,7.75
2023-03-18T07:00:22.836Z,7.89
2023-03-18T07:02:50.665Z,8.02
2023-03-18T07:05:20.630Z,8.13
2023-03-18T07:07:49.490Z,8.25
2023-03-18T07:10:20.899Z,8.36
2023-03-18T07:12:50.433Z,8.47
2023-03-18T07:15:22.470Z,8.62
2023-03-18T07:17:53.285Z,8.73
2023-03-18T07:20:23.626Z,8.81
2023-03-18T07:22:51.959Z,8.93
2023-03-18T07:25:21.762Z,9.05
2023-03-18T07:27:51.239Z,9.14
2023-03-18T07:30:21.255Z,9.27
2023-03-18T07:32:49.833Z,9.37
2023-03-18T07:35:17.694Z,9.53
2023-03-18T07:37:45.994Z,9.67
2023-03-18T07:40:14.236Z,9.81
2023-03-18T07:42:41.855Z,9.91
2023-03-18T07:45:11.005Z,9.97
2023-03-18T07:47:40.095Z,10.18
2023-03-18T07:50:09.029Z,10.31
2023-03-18T07:52:37.399Z,10.36
2023-03-18T07:55:05.989Z,10.57
2023-03-18T07:57:33.600Z,10.78
2023-03-18T08:00:01.429Z,11.02
2023-03-18T08:02:29.049Z,11.23
2023-03-18T08:04:58.982Z,11.54
2023-03-18T08:07:26.712Z,11.75
2023-03-18T08:09:54.742Z,11.88
2023-03-18T08:12:22.650Z,12.13
2023-03-18T08:14:50.260Z,12.37
2023-03-18T08:17:18.409Z,12.44
2023-03-18T08:19:47.071Z,12.61
2023-03-18T08:22:16.671Z,12.70
2023-03-18T08:24:45.646Z,12.82
2023-03-18T08:27:16.255Z,13.04
2023-03-18T08:29:44.801Z,13.42
2023-03-18T08:32:12.573Z,13.80
2023-03-18T08:34:40.354Z,14.07
2023-03-18T08:37:08.451Z,14.26
2023-03-18T08:39:37.613Z,14.38
2023-03-18T08:42:05.973Z,14.47
2023-03-18T08:44:34.072Z,14.50
2023-03-18T08:47:01.895Z,14.49
2023-03-18T08:49:30.167Z,14.70
2023-03-18T08:51:57.769Z,14.92
2023-03-18T08:54:25.438Z,15.19
2023-03-18T08:56:55.248Z,15.40
2023-03-18T08:59:22.938Z,15.68
2023-03-18T09:01:50.566Z,15.98
2023-03-18T09:04:18.539Z,16.28
2023-03-18T09:06:46.197Z,16.44
2023-03-18T09:09:14.374Z,16.64
2023-03-18T09:11:42.345Z,16.71
2023-03-18T09:14:11.981Z,17.02
2023-03-18T09:16:39.982Z,17.17
2023-03-18T09:19:08.147Z,17.28
2023-03-18T09:21:35.954Z,17.73
2023-03-18T09:24:07.016Z,17.96
2023-03-18T09:26:35.060Z,18.19
2023-03-18T09:29:02.699Z,18.59
2023-03-18T09:31:31.782Z,19.03
2023-03-18T09:33:59.696Z,19.37
2023-03-18T09:36:28.493Z,19.80
2023-03-18T09:38:56.458Z,20.22
2023-03-18T09:41:36.191Z,20.14
2023-03-18T09:44:14.701Z,20.25
2023-03-18T09:46:56.200Z,20.55
2023-03-18T09:49:43.835Z,20.76
2023-03-18T09:52:19.616Z,21.09
2023-03-18T09:54:55.108Z,21.23
2023-03-18T09:57:28.720Z,21.12
2023-03-18T10:00:05.129Z,21.30
2023-03-18T10:02:42.452Z,21.80
2023-03-18T10:05:16.669Z,22.30
2023-03-18T10:07:45.423Z,22.29
2023-03-18T10:10:22.641Z,22.30
2023-03-18T10:12:53.353Z,22.45
2023-03-18T10:15:25.269Z,22.67
2023-03-18T10:17:57.462Z,22.91
2023-03-18T10:20:34.317Z,22.66
2023-03-18T10:23:18.190Z,24.11
2023-03-18T10:25:53.502Z,23.48
2023-03-18T10:28:56.865Z,24.49
2023-03-18T10:31:35.197Z,24.07
2023-03-18T10:34:09.655Z,24.20
2023-03-18T10:36:45.090Z,24.19
2023-03-18T10:39:16.343Z,24.46
2023-03-18T10:41:49.911Z,24.58
2023-03-18T10:44:21.058Z,24.79
2023-03-18T10:46:50.668Z,25.59
2023-03-18T10:49:26.399Z,25.08
2023-03-18T10:51:58.786Z,24.90
2023-03-18T10:54:32.621Z,25.06
2023-03-18T10:57:00.396Z,25.06
2023-03-18T10:59:30.079Z,25.33
2023-03-18T11:02:04.461Z,25.58
2023-03-18T11:04:42.322Z,25.34
2023-03-18T11:07:16.362Z,25.55
2023-03-18T11:09:44.511Z,25.56
2023-03-18T11:12:18.972Z,25.59
2023-03-18T11:14:49.395Z,25.96
2023-03-18T11:17:23.255Z,26.31
2023-03-18T11:20:02.113Z,26.25
2023-03-18T11:22:32.120Z,26.05
2023-03-18T11:25:06.765Z,25.90
2023-03-18T11:27:39.490Z,25.88
2023-03-18T11:30:33.277Z,25.37
2023-03-18T11:33:07.165Z,25.37
2023-03-18T11:35:40.301Z,25.45
2023-03-18T11:38:15.111Z,25.35
2023-03-18T11:40:43.647Z,24.58
2023-03-18T11:43:19.483Z,24.84
2023-03-18T11:45:57.833Z,24.63
2023-03-18T11:48:32.180Z,24.38
2023-03-18T11:51:40.784Z,24.04
2023-03-18T11:54:27.511Z,24.18
2023-03-18T11:56:58.570Z,24.24
2023-03-18T11:59:38.698Z,24.41
2023-03-18T12:02:32.149Z,24.76
2023-03-18T12:05:09.483Z,24.86
2023-03-18T12:07:53.203Z,24.76
2023-03-18T12:10:28.305Z,23.97
2023-03-18T12:13:09.596Z,23.78
2023-03-18T12:15:47.453Z,23.83
2023-03-18T12:18:27.728Z,23.94
2023-03-18T12:21:01.209Z,24.09
2023-03-18T12:23:41.351Z,24.15
2023-03-18T12:26:14.104Z,24.67
2023-03-18T12:28:53.276Z,24.70
2023-03-18T12:31:35.318Z,24.47
2023-03-18T12:34:04.563Z,24.39
2023-03-18T12:36:50.130Z,24.29
2023-03-18T12:39:57.201Z,24.83
2023-03-18T12:42:37.249Z,24.12
2023-03-18T12:45:10.497Z,24.19
2023-03-18T12:47:43.885Z,24.49
2023-03-18T12:50:17.692Z,25.09
2023-03-18T12:52:49.208Z,25.34
2023-03-18T12:55:22.759Z,25.42
2023-03-18T12:57:55.049Z,25.66
2023-03-18T13:00:28.859Z,25.49
2023-03-18T13:03:06.904Z,25.65
2023-03-18T13:05:42.755Z,25.70
2023-03-18T13:08:42.866Z,25.83
2023-03-18T13:11:27.179Z,25.60
2023-03-18T13:14:00.825Z,25.46
2023-03-18T13:16:31.208Z,25.07
2023-03-18T13:19:00.449Z,25.03
2023-03-18T13:21:31.838Z,24.96
2023-03-18T13:24:18.603Z,24.84
2023-03-18T13:27:02.097Z,24.78
2023-03-18T13:29:38.120Z,24.82
2023-03-18T13:32:22.829Z,25.15
2023-03-18T13:35:50.709Z,25.33
2023-03-18T13:38:28.521Z,24.92
2023-03-18T13:41:32.662Z,24.56
2023-03-18T13:44:10.548Z,24.26
2023-03-18T13:46:38.506Z,23.91
2023-03-18T13:49:06.673Z,23.77
2023-03-18T13:51:52.601Z,23.66
2023-03-18T13:54:21.757Z,23.64
2023-03-18T13:56:55.457Z,23.74
2023-03-18T13:59:48.534Z,23.65
2023-03-18T14:02:45.564Z,23.63
2023-03-18T14:05:40.236Z,23.49
2023-03-18T14:08:42.396Z,23.43
2023-03-18T14:11:43.156Z,23.63
2023-03-18T14:15:06.236Z,24.05
2023-03-18T14:17:46.554Z,24.19
2023-03-18T14:20:40.066Z,24.08
2023-03-18T14:23:29.821Z,24.21
2023-03-18T14:26:02.614Z,23.91
2023-03-18T14:28:43.149Z,23.53
2023-03-18T14:31:30.135Z,23.14
2023-03-18T14:34:05.926Z,22.96
2023-03-18T14:37:22.606Z,22.86
2023-03-18T14:39:53.634Z,23.00
2023-03-18T14:42:34.153Z,23.24
2023-03-18T14:45:07.193Z,23.42
2023-03-18T14:47:43.048Z,23.50
2023-03-18T14:50:21.866Z,23.56
2023-03-18T14:52:55.858Z,23.91
2023-03-18T14:55:27.059Z,24.06
2023-03-18T14:57:54.938Z,24.01
2023-03-18T15:00:24.730Z,24.01
2023-03-18T15:03:00.954Z,23.81
2023-03-18T15:05:35.478Z,24.03
2023-03-18T15:08:07.324Z,24.06
2023-03-18T15:10:35.152Z,24.18
2023-03-18T15:13:07.068Z,24.13
2023-03-18T15:15:35.214Z,24.16
2023-03-18T15:18:07.968Z,23.96
2023-03-18T15:20:37.387Z,23.81
2023-03-18T15:23:09.963Z,23.49
2023-03-18T15:25:40.120Z,23.37
2023-03-18T15:28:08.004Z,23.39
2023-03-18T15:30:35.624Z,23.58
2023-03-18T15:33:06.694Z,23.76
2023-03-18T15:35:34.975Z,23.88
2023-03-18T15:38:17.418Z,24.16
2023-03-18T15:40:51.722Z,24.24
2023-03-18T15:43:30.675Z,24.17
2023-03-18T15:46:00.985Z,24.26
2023-03-18T15:48:34.880Z,24.58
2023-03-18T15:51:05.235Z,24.73
2023-03-18T15:53:41.942Z,25.24
2023-03-18T15:56:17.585Z,25.40
2023-03-18T15:58:46.108Z,25.30
2023-03-18T16:01:18.647Z,25.45
2023-03-18T16:03:47.692Z,25.38
2023-03-18T16:06:16.593Z,25.14
2023-03-18T16:08:46.469Z,24.75
2023-03-18T16:11:16.538Z,24.32
2023-03-18T16:13:45.465Z,23.86
2023-03-18T16:16:22.106Z,23.44
2023-03-18T16:18:49.884Z,23.02
2023-03-18T16:21:17.454Z,22.60
2023-03-18T16:23:47.966Z,22.33
2023-03-18T16:26:17.404Z,22.32
2023-03-18T16:28:48.317Z,22.79
2023-03-18T16:31:16.132Z,23.22
2023-03-18T16:33:46.368Z,23.58
2023-03-18T16:36:25.862Z,23.49
2023-03-18T16:38:54.815Z,22.90
2023-03-18T16:41:22.434Z,22.26
2023-03-18T16:43:50.504Z,21.66
2023-03-18T16:46:19.138Z,21.12
2023-03-18T16:48:49.518Z,20.63
2023-03-18T16:51:17.475Z,20.24
2023-03-18T16:53:45.299Z,19.91
2023-03-18T16:56:18.897Z,19.64
2023-03-18T16:58:46.521Z,19.37
2023-03-18T17:01:16.410Z,19.09
2023-03-18T17:03:45.717Z,18.86
2023-03-18T17:06:14.812Z,18.63
2023-03-18T17:08:42.591Z,18.44
2023-03-18T17:11:17.939Z,18.24
2023-03-18T17:13:48.662Z,18.04
2023-03-18T17:16:19.863Z,17.87
2023-03-18T17:18:48.101Z,17.70
2023-03-18T17:21:15.901Z,17.48
2023-03-18T17:23:43.643Z,17.28
2023-03-18T17:26:15.763Z,17.08
2023-03-18T17:28:46.651Z,16.88
2023-03-18T17:31:16.547Z,16.66
2023-03-18T17:33:44.459Z,16.52
2023-03-18T17:36:12.431Z,16.33
2023-03-18T17:38:40.279Z,16.21
2023-03-18T17:41:17.060Z,16.07
2023-03-18T17:43:44.868Z,15.92
2023-03-18T17:46:12.635Z,15.82
2023-03-18T17:48:41.957Z,15.69
2023-03-18T17:51:16.598Z,15.54
2023-03-18T17:53:47.980Z,15.41
2023-03-18T17:56:17.784Z,15.29
2023-03-18T17:58:47.180Z,15.19
2023-03-18T18:01:17.041Z,15.06
2023-03-18T18:03:47.375Z,14.93
2023-03-18T18:06:18.558Z,14.87
2023-03-18T18:08:47.068Z,14.59
2023-03-18T18:11:20.072Z,14.40
2023-03-18T18:13:48.907Z,14.16
2023-03-18T18:16:17.203Z,13.97
2023-03-18T18:18:49.535Z,13.81
2023-03-18T18:21:19.023Z,13.66
2023-03-18T18:23:47.375Z,13.49
2023-03-18T18:26:17.604Z,13.31
2023-03-18T18:28:47.637Z,13.25
2023-03-18T18:31:18.044Z,13.13
2023-03-18T18:33:49.994Z,13.05
2023-03-18T18:36:18.416Z,12.96
2023-03-18T18:38:46.473Z,12.82
2023-03-18T18:41:14.263Z,12.74
2023-03-18T18:43:42.007Z,12.66
2023-03-18T18:46:14.608Z,12.51
2023-03-18T18:48:44.411Z,12.37
2023-03-18T18:51:17.070Z,12.31
2023-03-18T18:53:45.395Z,12.19
2023-03-18T18:56:15.836Z,12.06
2023-03-18T18:58:43.506Z,11.97
2023-03-18T19:01:12.755Z,11.85
2023-03-18T19:03:41.475Z,11.77
2023-03-18T19:06:20.804Z,11.67
2023-03-18T19:08:48.591Z,11.46
2023-03-18T19:11:16.451Z,11.55
2023-03-18T19:13:44.883Z,11.39
2023-03-18T19:16:23.574Z,11.35
2023-03-18T19:18:51.414Z,11.32
2023-03-18T19:21:20.334Z,11.25
2023-03-18T19:23:48.166Z,11.23
2023-03-18T19:26:17.826Z,11.13
2023-03-18T19:28:58.828Z,11.05
2023-03-18T19:31:30.433Z,11.00
2023-03-18T19:34:00.314Z,10.93
2023-03-18T19:36:31.544Z,10.82
2023-03-18T19:39:01.347Z,10.71
2023-03-18T19:41:29.462Z,10.66
2023-03-18T19:44:01.883Z,10.59
2023-03-18T19:46:35.949Z,10.52
2023-03-18T19:49:03.783Z,10.46
2023-03-18T19:51:32.701Z,10.39
2023-03-18T19:54:01.258Z,10.23
2023-03-18T19:56:31.248Z,10.28
2023-03-18T19:59:00.243Z,10.31
2023-03-18T20:01:36.254Z,10.40
2023-03-18T20:04:16.114Z,10.40
2023-03-18T20:06:49.984Z,10.41
2023-03-18T20:09:18.707Z,10.39
2023-03-18T20:11:46.843Z,10.33
2023-03-18T20:14:23.657Z,10.23
2023-03-18T20:16:51.324Z,10.20
2023-03-18T20:19:18.983Z,10.10
2023-03-18T20:21:49.186Z,9.89
2023-03-18T20:24:20.170Z,9.73
2023-03-18T20:26:47.793Z,9.62
2023-03-18T20:29:17.680Z,9.49
2023-03-18T20:31:45.877Z,9.52
2023-03-18T20:34:14.050Z,9.53
2023-03-18T20:36:42.425Z,9.58
2023-03-18T20:39:20.207Z,9.61
2023-03-18T20:41:48.471Z,9.67
2023-03-18T20:44:16.230Z,9.74
2023-03-18T20:46:44.060Z,9.76
2023-03-18T20:49:12.904Z,9.80
2023-03-18T20:51:41.262Z,9.88
2023-03-18T20:54:18.940Z,9.92
2023-03-18T20:56:47.235Z,9.87
2023-03-18T20:59:14.955Z,9.84
2023-03-18T21:01:42.839Z,9.84
2023-03-18T21:04:13.528Z,9.85
2023-03-18T21:06:41.996Z,9.92
2023-03-18T21:09:10.637Z,9.91
2023-03-18T21:11:40.012Z,9.87
2023-03-18T21:14:07.764Z,9.84
2023-03-18T21:16:37.778Z,9.82
2023-03-18T21:19:05.963Z,9.82
2023-03-18T21:21:36.534Z,9.78
2023-03-18T21:24:13.958Z,9.81
2023-03-18T21:26:54.246Z,9.77
2023-03-18T21:29:29.221Z,9.69
2023-03-18T21:31:59.926Z,9.67
2023-03-18T21:34:27.725Z,9.50
2023-03-18T21:36:55.674Z,9.32
2023-03-18T21:39:23.282Z,9.22
2023-03-18T21:41:52.261Z,9.15
2023-03-18T21:44:19.866Z,9.00
2023-03-18T21:46:47.450Z,8.96
2023-03-18T21:49:15.982Z,8.88
2023-03-18T21:51:43.606Z,8.74
2023-03-18T21:54:18.718Z,8.69
2023-03-18T21:56:46.379Z,8.74
2023-03-18T21:59:15.491Z,8.77
2023-03-18T22:01:43.157Z,8.82
2023-03-18T22:04:10.942Z,8.92
2023-03-18T22:06:38.684Z,9.01
2023-03-18T22:09:07.235Z,9.07
2023-03-18T22:11:34.854Z,9.15
2023-03-18T22:14:02.532Z,9.14
2023-03-18T22:16:31.498Z,9.08
2023-03-18T22:18:59.220Z,9.09
2023-03-18T22:21:28.923Z,9.05
2023-03-18T22:23:58.117Z,9.03
2023-03-18T22:26:25.943Z,8.99
2023-03-18T22:28:53.673Z,9.00
2023-03-18T22:31:24.052Z,8.91
2023-03-18T22:33:53.466Z,8.89
2023-03-18T22:36:22.548Z,8.85
2023-03-18T22:38:51.040Z,8.82
2023-03-18T22:41:21.985Z,8.82
2023-03-18T22:43:50.058Z,8.81
2023-03-18T22:46:18.254Z,8.91
2023-03-18T22:48:46.248Z,8.94
2023-03-18T22:51:23.442Z,8.91
2023-03-18T22:53:53.204Z,8.75
2023-03-18T22:56:22.033Z,8.74
2023-03-18T22:58:50.515Z,8.76
2023-03-18T23:01:20.485Z,8.76
2023-03-18T23:03:49.064Z,8.71
2023-03-18T23:06:21.104Z,8.69
2023-03-18T23:08:49.267Z,8.67
2023-03-18T23:11:17.800Z,8.61
2023-03-18T23:13:49.879Z,8.64
2023-03-18T23:16:20.306Z,8.63
2023-03-18T23:18:48.580Z,8.62
2023-03-18T23:21:18.483Z,8.60
2023-03-18T23:23:46.397Z,8.62
2023-03-18T23:26:14.352Z,8.62
2023-03-18T23:28:44.843Z,8.59
2023-03-18T23:31:12.961Z,8.57
2023-03-18T23:33:40.960Z,8.56
2023-03-18T23:36:09.458Z,8.55
2023-03-18T23:38:39.034Z,8.54
2023-03-18T23:41:07.087Z,8.59
2023-03-18T23:43:35.018Z,8.65
2023-03-18T23:46:03.686Z,8.68
2023-03-18T23:48:31.423Z,8.69
2023-03-18T23:50:59.060Z,8.72
2023-03-18T23:53:27.173Z,8.76
2023-03-18T23:55:56.106Z,8.75
2023-03-18T23:58:23.828Z,8.81
